createdAt,value
2019-02-11T00:01:17.979Z,12.30
2019-02-11T00:03:49.362Z,11.87
2019-02-11T00:06:20.257Z,11.93
2019-02-11T00:08:51.714Z,11.60
2019-02-11T00:11:22.853Z,12.10
2019-02-11T00:13:54.316Z,12.73
2019-02-11T00:16:25.506Z,11.80
2019-02-11T00:18:56.592Z,12.30
2019-02-11T00:21:28.045Z,12.00
2019-02-11T00:23:59.202Z,11.63
2019-02-11T00:26:30.329Z,12.00
2019-02-11T00:29:01.514Z,12.40
2019-02-11T00:31:32.620Z,11.90
2019-02-11T00:34:04.066Z,11.60
2019-02-11T00:36:35.230Z,12.23
2019-02-11T00:39:07.417Z,12.13
2019-02-11T00:41:38.421Z,12.17
2019-02-11T00:44:09.534Z,11.83
2019-02-11T00:46:40.710Z,11.73
2019-02-11T00:49:11.856Z,12.30
2019-02-11T00:51:43.003Z,11.97
2019-02-11T00:54:14.455Z,11.90
2019-02-11T00:56:45.900Z,12.20
2019-02-11T00:59:17.040Z,11.73
2019-02-11T01:01:48.077Z,11.90
2019-02-11T01:04:19.021Z,11.73
2019-02-11T01:06:50.346Z,12.17
2019-02-11T01:09:22.230Z,11.33
2019-02-11T01:11:53.374Z,11.90
2019-02-11T01:14:25.443Z,12.33
2019-02-11T01:16:56.614Z,11.80
2019-02-11T01:19:27.670Z,11.50
2019-02-11T01:21:58.870Z,11.23
2019-02-11T01:24:30.361Z,12.10
2019-02-11T01:27:01.138Z,12.10
2019-02-11T01:29:32.869Z,11.80
2019-02-11T01:32:03.756Z,11.43
2019-02-11T01:34:35.376Z,11.83
2019-02-11T01:37:06.690Z,11.30
2019-02-11T01:39:38.421Z,12.17
2019-02-11T01:42:09.867Z,12.13
2019-02-11T01:44:41.329Z,11.63
2019-02-11T01:47:12.766Z,11.60
2019-02-11T01:49:43.604Z,11.13
2019-02-11T01:52:14.682Z,11.37
2019-02-11T01:54:45.591Z,11.33
2019-02-11T01:57:16.317Z,11.50
2019-02-11T01:59:47.012Z,11.33
2019-02-11T02:02:18.442Z,11.70
2019-02-11T02:04:49.541Z,11.77
2019-02-11T02:07:20.377Z,11.23
2019-02-11T02:09:51.706Z,11.57
2019-02-11T02:12:23.161Z,11.70
2019-02-11T02:14:54.781Z,11.67
2019-02-11T02:17:26.191Z,11.87
2019-02-11T02:19:57.329Z,11.37
2019-02-11T02:22:28.476Z,11.30
2019-02-11T02:24:59.301Z,11.57
2019-02-11T02:27:30.186Z,11.33
2019-02-11T02:30:00.979Z,11.40
2019-02-11T02:32:32.132Z,11.33
2019-02-11T02:35:03.514Z,11.77
2019-02-11T02:37:34.712Z,11.50
2019-02-11T02:40:07.769Z,11.43
2019-02-11T02:42:39.464Z,11.90
2019-02-11T02:45:12.120Z,11.33
2019-02-11T02:47:42.979Z,11.37
2019-02-11T02:50:14.538Z,11.90
2019-02-11T02:52:45.586Z,11.63
2019-02-11T02:55:17.355Z,11.17
2019-02-11T02:57:48.469Z,11.20
2019-02-11T03:00:19.312Z,11.87
2019-02-11T03:02:50.453Z,11.70
2019-02-11T03:05:21.698Z,11.00
2019-02-11T03:07:52.933Z,11.33
2019-02-11T03:10:23.993Z,11.27
2019-02-11T03:12:55.130Z,11.40
2019-02-11T03:15:26.269Z,11.30
2019-02-11T03:17:57.419Z,11.67
2019-02-11T03:20:28.557Z,11.13
2019-02-11T03:22:59.394Z,11.30
2019-02-11T03:25:30.550Z,11.10
2019-02-11T03:28:01.689Z,11.73
2019-02-11T03:30:32.902Z,11.07
2019-02-11T03:33:03.788Z,10.70
2019-02-11T03:35:35.014Z,11.30
2019-02-11T03:38:05.455Z,11.07
2019-02-11T03:40:36.482Z,11.03
2019-02-11T03:43:06.893Z,10.83
2019-02-11T03:45:37.847Z,11.93
2019-02-11T03:48:08.177Z,11.30
2019-02-11T03:50:39.210Z,11.20
2019-02-11T03:53:09.546Z,10.67
2019-02-11T03:55:40.270Z,11.17
2019-02-11T03:58:10.698Z,10.90
2019-02-11T04:00:41.801Z,10.60
2019-02-11T04:03:13.086Z,10.93
2019-02-11T04:05:44.539Z,10.87
2019-02-11T04:08:15.990Z,10.80
2019-02-11T04:10:47.369Z,10.80
2019-02-11T04:13:18.897Z,10.40
2019-02-11T04:15:50.350Z,10.87
2019-02-11T04:18:21.470Z,10.37
2019-02-11T04:20:52.347Z,10.50
2019-02-11T04:23:23.802Z,10.70
2019-02-11T04:25:55.530Z,11.43
2019-02-11T04:28:25.991Z,10.53
2019-02-11T04:30:57.197Z,11.13
2019-02-11T04:33:27.533Z,10.40
2019-02-11T04:35:58.345Z,11.03
2019-02-11T04:38:29.101Z,10.97
2019-02-11T04:40:59.715Z,10.50
2019-02-11T04:43:30.467Z,10.30
2019-02-11T04:46:01.085Z,10.17
2019-02-11T04:48:31.522Z,10.53
2019-02-11T04:51:02.027Z,10.50
2019-02-11T04:53:32.889Z,10.33
2019-02-11T04:56:03.537Z,10.63
2019-02-11T04:58:34.257Z,10.80
2019-02-11T05:01:05.407Z,10.30
2019-02-11T05:03:36.893Z,10.43
2019-02-11T05:06:07.990Z,10.57
2019-02-11T05:08:39.150Z,10.63
2019-02-11T05:11:10.159Z,10.60
2019-02-11T05:13:41.494Z,10.57
2019-02-11T05:16:13.322Z,10.97
2019-02-11T05:18:44.422Z,10.70
2019-02-11T05:21:15.762Z,10.50
2019-02-11T05:23:47.005Z,10.07
2019-02-11T05:26:18.222Z,10.33
2019-02-11T05:28:48.935Z,10.20
2019-02-11T05:31:19.844Z,10.27
2019-02-11T05:33:50.524Z,10.13
2019-02-11T05:36:21.428Z,10.43
2019-02-11T05:38:52.213Z,10.50
2019-02-11T05:41:23.086Z,10.50
2019-02-11T05:43:53.498Z,9.97
2019-02-11T05:46:24.199Z,10.70
2019-02-11T05:48:55.102Z,10.23
2019-02-11T05:51:25.829Z,10.23
2019-02-11T05:53:56.365Z,10.43
2019-02-11T05:56:26.880Z,10.00
2019-02-11T05:58:57.233Z,10.03
2019-02-11T06:01:28.241Z,9.50
2019-02-11T06:03:59.383Z,9.87
2019-02-11T06:06:30.662Z,10.00
2019-02-11T06:09:02.367Z,10.27
2019-02-11T06:11:33.742Z,9.97
2019-02-11T06:14:04.874Z,9.73
2019-02-11T06:16:35.655Z,9.50
2019-02-11T06:19:06.875Z,9.20
2019-02-11T06:21:38.040Z,9.43
2019-02-11T06:24:08.799Z,9.30
2019-02-11T06:26:39.713Z,9.63
2019-02-11T06:29:10.828Z,9.43
2019-02-11T06:31:41.963Z,9.33
2019-02-11T06:34:14.126Z,8.90
2019-02-11T06:36:45.165Z,9.43
2019-02-11T06:39:16.310Z,9.17
2019-02-11T06:41:47.472Z,9.00
2019-02-11T06:44:18.605Z,8.97
2019-02-11T06:46:50.241Z,9.00
2019-02-11T06:49:21.130Z,9.13
2019-02-11T06:51:52.338Z,8.63
2019-02-11T06:54:23.490Z,8.80
2019-02-11T06:56:54.623Z,9.20
2019-02-11T06:59:26.074Z,9.00
2019-02-11T07:01:57.170Z,8.87
2019-02-11T07:04:28.371Z,8.73
2019-02-11T07:06:59.510Z,8.77
2019-02-11T07:09:30.957Z,8.77
2019-02-11T07:12:02.394Z,9.00
2019-02-11T07:14:33.550Z,8.33
2019-02-11T07:17:04.713Z,8.40
2019-02-11T07:19:35.843Z,9.40
2019-02-11T07:22:06.913Z,8.60
2019-02-11T07:24:37.626Z,8.47
2019-02-11T07:27:08.373Z,8.33
2019-02-11T07:29:39.494Z,8.17
2019-02-11T07:32:11.266Z,8.33
2019-02-11T07:34:42.706Z,7.80
2019-02-11T07:37:13.538Z,7.83
2019-02-11T07:39:44.688Z,8.50
2019-02-11T07:42:23.698Z,8.43
2019-02-11T07:44:57.117Z,7.93
2019-02-11T07:47:27.965Z,7.63
2019-02-11T07:49:59.326Z,7.70
2019-02-11T07:52:30.255Z,8.43
2019-02-11T07:55:01.371Z,7.73
2019-02-11T07:57:32.210Z,8.03
2019-02-11T08:00:03.376Z,8.33
2019-02-11T08:02:34.503Z,8.03
2019-02-11T08:05:05.970Z,7.60
2019-02-11T08:07:37.398Z,8.20
2019-02-11T08:10:08.850Z,7.50
2019-02-11T08:12:39.995Z,8.00
2019-02-11T08:15:11.378Z,7.40
2019-02-11T08:17:42.585Z,7.10
2019-02-11T08:20:13.979Z,7.80
2019-02-11T08:22:45.507Z,7.80
2019-02-11T08:25:16.330Z,7.27
2019-02-11T08:27:47.178Z,7.50
2019-02-11T08:30:17.799Z,7.17
2019-02-11T08:32:48.834Z,7.13
2019-02-11T08:35:19.900Z,7.40
2019-02-11T08:37:51.126Z,6.77
2019-02-11T08:40:22.570Z,7.20
2019-02-11T08:42:54.022Z,7.07
2019-02-11T08:45:25.198Z,7.70
2019-02-11T08:47:56.006Z,6.90
2019-02-11T08:50:27.154Z,7.47
2019-02-11T08:52:58.555Z,6.90
2019-02-11T08:55:29.629Z,7.10
2019-02-11T08:58:01.827Z,6.63
2019-02-11T09:00:32.646Z,7.13
2019-02-11T09:03:03.551Z,6.50
2019-02-11T09:05:34.440Z,6.63
2019-02-11T09:08:05.466Z,6.80
2019-02-11T09:10:35.879Z,7.20
2019-02-11T09:13:07.074Z,6.60
2019-02-11T09:15:38.339Z,6.60
2019-02-11T09:18:09.429Z,7.00
2019-02-11T09:20:42.023Z,6.80
2019-02-11T09:23:12.945Z,6.73
2019-02-11T09:25:44.029Z,6.07
2019-02-11T09:28:14.973Z,6.60
2019-02-11T09:30:46.317Z,6.40
2019-02-11T09:33:17.601Z,6.77
2019-02-11T09:35:48.666Z,6.50
2019-02-11T09:38:19.604Z,6.73
2019-02-11T09:40:50.363Z,5.97
2019-02-11T09:43:21.042Z,6.23
2019-02-11T09:45:51.709Z,6.40
2019-02-11T09:48:22.104Z,6.37
2019-02-11T09:50:53.691Z,6.13
2019-02-11T09:53:24.293Z,5.97
2019-02-11T09:55:56.883Z,5.87
2019-02-11T09:58:27.292Z,6.13
2019-02-11T10:00:58.898Z,6.12
2019-02-11T10:03:29.802Z,5.83
2019-02-11T10:06:00.859Z,5.87
2019-02-11T10:08:32.191Z,5.87
2019-02-11T10:11:03.155Z,5.87
2019-02-11T10:13:33.998Z,5.77
2019-02-11T10:16:12.297Z,5.90
2019-02-11T10:18:38.094Z,5.87
2019-02-11T10:21:09.461Z,6.00
2019-02-11T10:23:40.401Z,5.73
2019-02-11T10:26:11.837Z,5.77
2019-02-11T10:28:42.978Z,5.40
2019-02-11T10:31:14.413Z,5.63
2019-02-11T10:33:45.283Z,5.67
2019-02-11T10:36:17.918Z,5.50
2019-02-11T10:38:48.809Z,5.20
2019-02-11T10:41:20.848Z,5.40
2019-02-11T10:43:52.021Z,6.00
2019-02-11T10:46:23.440Z,5.70
2019-02-11T10:48:55.506Z,5.20
2019-02-11T10:51:26.954Z,5.50
2019-02-11T10:53:58.127Z,5.60
2019-02-11T10:56:29.250Z,5.47
2019-02-11T10:59:00.699Z,5.63
2019-02-11T11:01:31.849Z,5.17
2019-02-11T11:04:03.382Z,5.27
2019-02-11T11:06:34.086Z,5.57
2019-02-11T11:09:08.102Z,5.17
2019-02-11T11:11:38.442Z,5.03
2019-02-11T11:14:09.710Z,4.93
2019-02-11T11:16:40.399Z,5.17
2019-02-11T11:19:11.254Z,5.07
2019-02-11T11:21:42.219Z,5.10
2019-02-11T11:24:12.917Z,4.80
2019-02-11T11:26:43.585Z,5.30
2019-02-11T11:29:14.455Z,5.10
2019-02-11T11:31:45.260Z,4.73
2019-02-11T11:34:16.177Z,4.87
2019-02-11T11:36:46.624Z,4.67
2019-02-11T11:39:25.355Z,4.90
2019-02-11T11:41:55.910Z,4.43
2019-02-11T11:44:28.168Z,4.73
2019-02-11T11:46:58.793Z,4.40
2019-02-11T11:49:29.341Z,4.70
2019-02-11T11:51:59.934Z,4.27
2019-02-11T11:54:30.627Z,4.80
2019-02-11T11:57:00.998Z,4.57
2019-02-11T11:59:32.796Z,4.27
2019-02-11T12:02:03.595Z,4.50
2019-02-11T12:04:34.240Z,4.10
2019-02-11T12:07:05.585Z,4.33
2019-02-11T12:09:36.714Z,3.90
2019-02-11T12:12:08.129Z,4.40
2019-02-11T12:14:39.227Z,4.43
2019-02-11T12:17:10.469Z,4.47
2019-02-11T12:19:41.295Z,4.00
2019-02-11T12:22:13.358Z,4.00
2019-02-11T12:24:44.534Z,3.77
2019-02-11T12:27:15.681Z,4.40
2019-02-11T12:29:46.792Z,4.13
2019-02-11T12:32:17.859Z,4.30
2019-02-11T12:34:49.071Z,4.03
2019-02-11T12:37:20.530Z,4.07
2019-02-11T12:39:51.698Z,3.80
2019-02-11T12:42:22.840Z,3.80
2019-02-11T12:44:53.795Z,3.83
2019-02-11T12:47:24.727Z,4.30
2019-02-11T12:49:56.649Z,3.87
2019-02-11T12:52:27.664Z,4.07
2019-02-11T12:54:58.499Z,3.73
2019-02-11T12:57:32.242Z,3.83
2019-02-11T13:00:03.614Z,3.90
2019-02-11T13:02:36.305Z,3.63
2019-02-11T13:05:07.705Z,3.80
2019-02-11T13:07:39.248Z,3.53
2019-02-11T13:10:13.694Z,3.87
2019-02-11T13:12:45.068Z,3.70
2019-02-11T13:15:41.425Z,3.70
2019-02-11T13:17:50.638Z,3.63
2019-02-11T13:20:22.870Z,3.40
2019-02-11T13:22:54.330Z,3.37
2019-02-11T13:25:25.462Z,3.73
2019-02-11T13:27:56.626Z,3.30
2019-02-11T13:30:28.110Z,3.10
2019-02-11T13:32:58.919Z,3.40
2019-02-11T13:35:30.584Z,3.30
2019-02-11T13:38:02.104Z,3.40
2019-02-11T13:40:32.925Z,3.10
2019-02-11T13:43:03.980Z,3.00
2019-02-11T13:45:34.542Z,3.13
2019-02-11T13:48:05.399Z,3.27
2019-02-11T13:50:36.197Z,3.00
2019-02-11T13:53:07.431Z,3.40
2019-02-11T13:55:37.793Z,3.33
2019-02-11T13:58:08.708Z,3.20
2019-02-11T14:00:40.122Z,2.93
2019-02-11T14:03:12.941Z,3.27
2019-02-11T14:05:44.378Z,3.10
2019-02-11T14:08:16.147Z,3.10
2019-02-11T14:10:47.374Z,2.90
2019-02-11T14:13:18.523Z,3.13
2019-02-11T14:15:50.011Z,3.10
2019-02-11T14:18:21.027Z,3.23
2019-02-11T14:20:52.143Z,3.07
2019-02-11T14:23:23.308Z,3.27
2019-02-11T14:25:54.793Z,3.40
2019-02-11T14:28:25.886Z,3.13
2019-02-11T14:30:57.354Z,3.30
2019-02-11T14:33:29.146Z,3.13
2019-02-11T14:36:01.182Z,3.10
2019-02-11T14:38:32.627Z,3.07
2019-02-11T14:41:04.381Z,3.03
2019-02-11T14:43:36.449Z,3.13
2019-02-11T14:46:08.864Z,3.30
2019-02-11T14:48:40.889Z,3.43
2019-02-11T14:51:13.004Z,3.20
2019-02-11T14:53:45.109Z,3.07
2019-02-11T14:56:17.409Z,2.97
2019-02-11T14:58:48.547Z,3.10
2019-02-11T15:01:20.299Z,3.00
2019-02-11T15:03:51.566Z,3.10
2019-02-11T15:06:22.605Z,3.23
2019-02-11T15:08:53.269Z,3.00
2019-02-11T15:11:24.868Z,2.83
2019-02-11T15:13:55.282Z,3.00
2019-02-11T15:16:25.919Z,3.10
2019-02-11T15:18:57.675Z,3.00
2019-02-11T15:21:28.832Z,3.20
2019-02-11T15:23:59.627Z,2.90
2019-02-11T15:26:30.270Z,2.77
2019-02-11T15:29:00.595Z,3.20
2019-02-11T15:31:31.564Z,2.87
2019-02-11T15:34:02.107Z,3.27
2019-02-11T15:36:34.445Z,2.90
2019-02-11T15:39:06.282Z,2.97
2019-02-11T15:41:37.111Z,3.03
2019-02-11T15:44:07.842Z,2.60
2019-02-11T15:46:38.719Z,2.93
2019-02-11T15:49:09.135Z,2.80
2019-02-11T15:51:40.387Z,2.80
2019-02-11T15:54:10.778Z,2.80
2019-02-11T15:56:41.459Z,2.73
2019-02-11T15:59:12.139Z,3.20
2019-02-11T16:01:43.134Z,2.60
2019-02-11T16:04:13.535Z,2.90
2019-02-11T16:06:44.442Z,2.70
2019-02-11T16:09:15.359Z,2.80
2019-02-11T16:11:47.083Z,2.83
2019-02-11T16:14:18.240Z,2.87
2019-02-11T16:16:50.004Z,2.97
2019-02-11T16:19:21.189Z,2.87
2019-02-11T16:21:52.609Z,2.60
2019-02-11T16:24:23.581Z,2.60
2019-02-11T16:26:55.180Z,2.70
2019-02-11T16:29:26.544Z,3.03
2019-02-11T16:32:00.800Z,2.80
2019-02-11T16:34:29.833Z,2.83
2019-02-11T16:37:00.673Z,2.60
2019-02-11T16:39:31.841Z,2.80
2019-02-11T16:42:03.299Z,2.80
2019-02-11T16:44:34.105Z,2.70
2019-02-11T16:47:05.374Z,2.70
2019-02-11T16:49:36.695Z,2.70
2019-02-11T16:52:08.150Z,2.93
2019-02-11T16:54:39.305Z,2.63
2019-02-11T16:57:10.742Z,2.70
2019-02-11T16:59:41.590Z,2.80
2019-02-11T17:02:12.739Z,2.80
2019-02-11T17:04:43.373Z,3.13
2019-02-11T17:07:14.397Z,2.60
2019-02-11T17:09:45.746Z,2.80
2019-02-11T17:12:16.986Z,2.50
2019-02-11T17:14:48.133Z,2.90
2019-02-11T17:17:19.626Z,2.60
2019-02-11T17:19:50.969Z,2.70
2019-02-11T17:22:22.198Z,2.57
2019-02-11T17:24:53.301Z,2.97
2019-02-11T17:27:24.323Z,2.70
2019-02-11T17:29:55.610Z,2.70
2019-02-11T17:32:26.773Z,2.70
2019-02-11T17:34:58.238Z,3.20
2019-02-11T17:37:30.347Z,2.80
2019-02-11T17:40:01.131Z,2.87
2019-02-11T17:42:33.506Z,3.17
2019-02-11T17:45:05.042Z,3.23
2019-02-11T17:47:36.693Z,2.70
2019-02-11T17:50:09.079Z,3.20
2019-02-11T17:52:41.109Z,3.30
2019-02-11T17:55:12.254Z,3.10
2019-02-11T17:57:43.128Z,3.10
2019-02-11T18:00:28.025Z,3.07
2019-02-11T18:02:58.928Z,2.93
2019-02-11T18:05:29.246Z,3.10
2019-02-11T18:08:00.288Z,3.00
2019-02-11T18:10:31.687Z,2.80
2019-02-11T18:13:04.150Z,3.20
2019-02-11T18:15:35.615Z,2.63
2019-02-11T18:18:10.084Z,3.10
2019-02-11T18:20:41.216Z,2.93
2019-02-11T18:23:11.618Z,2.80
2019-02-11T18:25:42.601Z,3.00
2019-02-11T18:28:13.176Z,2.63
2019-02-11T18:30:44.053Z,2.80
2019-02-11T18:33:14.850Z,2.73
2019-02-11T18:35:46.333Z,2.80
2019-02-11T18:38:18.064Z,2.80
2019-02-11T18:40:49.107Z,2.53
2019-02-11T18:43:19.986Z,2.93
2019-02-11T18:45:50.419Z,2.83
2019-02-11T18:48:20.850Z,2.57
2019-02-11T18:50:53.726Z,2.70
2019-02-11T18:53:24.780Z,2.70
2019-02-11T18:55:55.944Z,2.47
2019-02-11T18:58:27.062Z,2.70
2019-02-11T19:00:58.370Z,2.57
2019-02-11T19:03:29.808Z,2.63
2019-02-11T19:06:00.686Z,2.87
2019-02-11T19:08:31.730Z,2.47
2019-02-11T19:11:03.333Z,2.43
2019-02-11T19:13:35.336Z,2.60
2019-02-11T19:16:07.984Z,2.57
2019-02-11T19:18:39.558Z,2.43
2019-02-11T19:21:12.693Z,2.60
2019-02-11T19:23:44.379Z,2.43
2019-02-11T19:26:18.024Z,2.53
2019-02-11T19:28:49.901Z,2.50
2019-02-11T19:31:21.196Z,2.53
2019-02-11T19:33:51.943Z,2.50
2019-02-11T19:36:23.257Z,2.70
2019-02-11T19:38:54.570Z,2.40
2019-02-11T19:41:25.837Z,2.23
2019-02-11T19:43:57.118Z,2.57
2019-02-11T19:46:30.874Z,2.50
2019-02-11T19:49:02.338Z,2.20
2019-02-11T19:51:33.777Z,2.13
2019-02-11T19:54:04.996Z,2.20
2019-02-11T19:56:35.998Z,2.47
2019-02-11T19:59:07.006Z,2.50
2019-02-11T20:01:38.034Z,2.30
2019-02-11T20:04:09.166Z,2.60
2019-02-11T20:06:40.662Z,2.50
2019-02-11T20:09:11.819Z,2.00
2019-02-11T20:11:42.942Z,2.57
2019-02-11T20:14:14.064Z,2.40
2019-02-11T20:16:45.188Z,2.27
2019-02-11T20:19:16.038Z,2.10
2019-02-11T20:21:48.430Z,2.47
2019-02-11T20:24:19.871Z,2.43
2019-02-11T20:26:51.089Z,2.20
2019-02-11T20:29:22.156Z,2.20
2019-02-11T20:31:53.436Z,2.20
2019-02-11T20:34:25.244Z,2.07
2019-02-11T20:36:56.500Z,2.20
2019-02-11T20:39:27.322Z,2.40
2019-02-11T20:41:58.465Z,2.10
2019-02-11T20:44:31.224Z,2.20
2019-02-11T20:47:04.730Z,2.40
2019-02-11T20:49:36.212Z,2.20
2019-02-11T20:52:09.373Z,2.00
2019-02-11T20:54:43.945Z,2.20
2019-02-11T20:57:15.494Z,2.67
2019-02-11T20:59:47.043Z,2.27
2019-02-11T21:02:21.019Z,2.10
2019-02-11T21:04:53.810Z,2.20
2019-02-11T21:07:25.004Z,1.90
2019-02-11T21:09:56.998Z,2.07
2019-02-11T21:12:28.707Z,2.10
2019-02-11T21:15:00.429Z,2.37
2019-02-11T21:17:31.977Z,2.00
2019-02-11T21:20:04.276Z,2.20
2019-02-11T21:22:35.853Z,2.10
2019-02-11T21:25:09.299Z,2.00
2019-02-11T21:27:40.877Z,2.10
2019-02-11T21:30:13.480Z,1.90
2019-02-11T21:32:46.203Z,1.83
2019-02-11T21:35:16.966Z,1.70
2019-02-11T21:37:52.520Z,2.10
2019-02-11T21:40:23.920Z,2.00
2019-02-11T21:42:55.527Z,2.10
2019-02-11T21:45:27.032Z,2.20
2019-02-11T21:47:58.554Z,1.90
2019-02-11T21:50:29.827Z,2.00
2019-02-11T21:53:00.866Z,2.00
2019-02-11T21:55:32.304Z,2.17
2019-02-11T21:58:03.399Z,1.67
2019-02-11T22:00:34.558Z,2.00
2019-02-11T22:03:06.003Z,2.00
2019-02-11T22:05:37.270Z,2.30
2019-02-11T22:08:09.184Z,2.20
2019-02-11T22:10:40.351Z,2.53
2019-02-11T22:13:11.791Z,2.00
2019-02-11T22:15:42.944Z,2.00
2019-02-11T22:18:14.649Z,2.20
2019-02-11T22:20:45.123Z,2.30
2019-02-11T22:23:15.730Z,2.40
2019-02-11T22:25:46.170Z,2.20
2019-02-11T22:28:17.430Z,1.90
2019-02-11T22:30:48.380Z,2.10
2019-02-11T22:33:19.618Z,2.07
2019-02-11T22:35:51.858Z,2.20
2019-02-11T22:38:23.538Z,1.90
2019-02-11T22:40:54.949Z,2.10
2019-02-11T22:43:26.746Z,1.93
2019-02-11T22:45:58.193Z,2.30
2019-02-11T22:48:29.650Z,2.10
2019-02-11T22:51:01.188Z,2.20
2019-02-11T22:53:32.192Z,2.13
2019-02-11T22:56:03.253Z,2.00
2019-02-11T22:58:34.218Z,2.13
2019-02-11T23:01:07.141Z,2.30
2019-02-11T23:03:38.350Z,2.13
2019-02-11T23:06:09.494Z,1.70
2019-02-11T23:08:40.306Z,2.20
2019-02-11T23:11:11.474Z,2.10
2019-02-11T23:13:42.871Z,2.03
2019-02-11T23:16:14.330Z,2.00
2019-02-11T23:18:45.215Z,1.90
2019-02-11T23:21:16.557Z,1.77
2019-02-11T23:23:47.834Z,2.10
2019-02-11T23:26:19.170Z,2.10
2019-02-11T23:28:50.407Z,2.00
2019-02-11T23:31:21.849Z,2.00
2019-02-11T23:33:52.510Z,2.10
2019-02-11T23:36:23.541Z,1.87
2019-02-11T23:38:53.933Z,1.80
2019-02-11T23:41:24.859Z,2.20
2019-02-11T23:43:55.309Z,2.00
2019-02-11T23:46:26.329Z,2.10
2019-02-11T23:48:56.737Z,2.20
2019-02-11T23:51:27.946Z,2.00
2019-02-11T23:53:58.555Z,2.10
2019-02-11T23:56:28.882Z,2.10
2019-02-11T23:58:59.514Z,2.00
